createdAt,value
2023-01-08T00:01:11.834Z,94640.00
2023-01-08T00:03:39.351Z,94647.50
2023-01-08T00:06:08.664Z,94641.09
2023-01-08T00:08:35.545Z,94642.25
2023-01-08T00:11:02.222Z,94640.69
2023-01-08T00:13:29.312Z,94631.47
2023-01-08T00:15:56.004Z,94621.53
2023-01-08T00:18:24.162Z,94614.66
2023-01-08T00:20:50.735Z,94616.47
2023-01-08T00:23:19.200Z,94609.63
2023-01-08T00:25:46.096Z,94604.31
2023-01-08T00:28:14.938Z,94601.31
2023-01-08T00:30:42.140Z,94599.81
2023-01-08T00:33:10.043Z,94604.34
2023-01-08T00:35:40.033Z,94592.44
2023-01-08T00:38:06.739Z,94595.91
2023-01-08T00:40:35.198Z,94599.44
2023-01-08T00:43:01.966Z,94598.06
2023-01-08T00:45:28.577Z,94601.13
2023-01-08T00:47:55.157Z,94595.81
2023-01-08T00:50:21.728Z,94598.25
2023-01-08T00:52:48.349Z,94587.47
2023-01-08T00:55:15.134Z,94587.47
2023-01-08T00:57:41.766Z,94600.25
2023-01-08T01:00:11.717Z,94605.50
2023-01-08T01:02:39.474Z,94606.22
2023-01-08T01:05:07.668Z,94605.22
2023-01-08T01:07:34.966Z,94605.31
2023-01-08T01:10:01.869Z,94603.25
2023-01-08T01:12:28.668Z,94599.16
2023-01-08T01:14:55.298Z,94593.38
2023-01-08T01:17:21.935Z,94590.69
2023-01-08T01:19:48.510Z,94593.56
2023-01-08T01:22:16.170Z,94589.84
2023-01-08T01:24:42.801Z,94588.31
2023-01-08T01:27:09.440Z,94579.00
2023-01-08T01:29:36.011Z,94582.97
2023-01-08T01:32:02.624Z,94572.97
2023-01-08T01:34:29.213Z,94575.66
2023-01-08T01:36:55.829Z,94575.03
2023-01-08T01:39:23.170Z,94573.41
2023-01-08T01:41:49.786Z,94565.03
2023-01-08T01:44:38.150Z,94562.13
2023-01-08T01:47:20.863Z,94557.88
2023-01-08T01:50:09.037Z,94550.81
2023-01-08T01:52:40.705Z,94555.88
2023-01-08T01:55:09.979Z,94558.41
2023-01-08T01:57:37.931Z,94559.97
2023-01-08T02:00:08.074Z,94555.34
2023-01-08T02:02:41.320Z,94551.28
2023-01-08T02:05:08.858Z,94546.47
2023-01-08T02:08:06.580Z,94541.97
2023-01-08T02:10:40.990Z,94539.59
2023-01-08T02:13:17.484Z,94545.75
2023-01-08T02:16:00.983Z,94546.75
2023-01-08T02:18:51.582Z,94543.59
2023-01-08T02:21:31.635Z,94543.50
2023-01-08T02:23:58.173Z,94539.25
2023-01-08T02:26:31.686Z,94538.78
2023-01-08T02:29:08.781Z,94529.03
2023-01-08T02:31:38.787Z,94522.47
2023-01-08T02:34:05.444Z,94527.78
2023-01-08T02:36:37.202Z,94528.75
2023-01-08T02:39:12.768Z,94532.94
2023-01-08T02:42:06.822Z,94530.84
2023-01-08T02:44:40.257Z,94524.59
2023-01-08T02:47:17.896Z,94529.66
2023-01-08T02:49:47.093Z,94519.00
2023-01-08T02:52:17.443Z,94515.66
2023-01-08T02:54:46.300Z,94515.19
2023-01-08T02:57:15.739Z,94517.53
2023-01-08T02:59:45.599Z,94509.59
2023-01-08T03:02:12.497Z,94503.25
2023-01-08T03:04:53.498Z,94503.16
2023-01-08T03:07:21.076Z,94499.03
2023-01-08T03:09:48.112Z,94496.69
2023-01-08T03:12:25.073Z,94502.00
2023-01-08T03:14:58.046Z,94499.03
2023-01-08T03:17:35.779Z,94499.47
2023-01-08T03:20:16.340Z,94501.75
2023-01-08T03:22:46.752Z,94494.88
2023-01-08T03:25:16.384Z,94480.63
2023-01-08T03:27:48.367Z,94473.38
2023-01-08T03:30:18.105Z,94475.47
2023-01-08T03:32:46.786Z,94473.47
2023-01-08T03:35:17.931Z,94458.22
2023-01-08T03:37:51.813Z,94458.41
2023-01-08T03:40:35.194Z,94463.72
2023-01-08T03:43:01.891Z,94453.81
2023-01-08T03:45:31.617Z,94450.97
2023-01-08T03:47:59.875Z,94457.59
2023-01-08T03:50:28.393Z,94448.19
2023-01-08T03:52:55.083Z,94445.50
2023-01-08T03:55:21.904Z,94449.91
2023-01-08T03:57:48.510Z,94446.13
2023-01-08T04:00:15.584Z,94439.34
2023-01-08T04:02:42.483Z,94441.31
2023-01-08T04:05:10.279Z,94437.91
2023-01-08T04:07:37.220Z,94426.06
2023-01-08T04:10:04.070Z,94432.00
2023-01-08T04:12:30.731Z,94428.94
2023-01-08T04:14:57.327Z,94422.34
2023-01-08T04:17:23.930Z,94421.25
2023-01-08T04:19:50.492Z,94423.63
2023-01-08T04:22:17.116Z,94425.06
2023-01-08T04:24:43.684Z,94415.22
2023-01-08T04:27:10.361Z,94411.06
2023-01-08T04:29:36.951Z,94405.91
2023-01-08T04:32:03.587Z,94410.78
2023-01-08T04:34:30.184Z,94405.09
2023-01-08T04:36:56.815Z,94395.06
2023-01-08T04:39:23.399Z,94397.31
2023-01-08T04:41:49.966Z,94396.69
2023-01-08T04:44:16.644Z,94391.63
2023-01-08T04:46:43.276Z,94398.41
2023-01-08T04:49:11.224Z,94397.66
2023-01-08T04:51:38.099Z,94402.91
2023-01-08T04:54:04.890Z,94392.25
2023-01-08T04:56:31.533Z,94392.53
2023-01-08T04:58:58.822Z,94392.09
2023-01-08T05:01:27.901Z,94389.13
2023-01-08T05:04:03.594Z,94383.16
2023-01-08T05:06:32.311Z,94378.28
2023-01-08T05:08:59.277Z,94382.34
2023-01-08T05:11:26.480Z,94381.00
2023-01-08T05:13:54.047Z,94370.88
2023-01-08T05:16:20.854Z,94382.53
2023-01-08T05:18:47.575Z,94378.91
2023-01-08T05:21:14.737Z,94374.84
2023-01-08T05:23:45.673Z,94382.53
2023-01-08T05:26:12.260Z,94386.06
2023-01-08T05:28:38.860Z,94387.84
2023-01-08T05:31:05.612Z,94377.47
2023-01-08T05:33:32.683Z,94384.97
2023-01-08T05:35:59.353Z,94381.09
2023-01-08T05:38:25.895Z,94384.59
2023-01-08T05:40:53.515Z,94389.03
2023-01-08T05:43:20.120Z,94393.91
2023-01-08T05:45:46.663Z,94404.00
2023-01-08T05:48:13.264Z,94396.88
2023-01-08T05:50:39.835Z,94389.91
2023-01-08T05:53:07.688Z,94382.53
2023-01-08T05:55:35.170Z,94390.19
2023-01-08T05:58:05.653Z,94388.47
2023-01-08T06:00:33.848Z,94395.78
2023-01-08T06:03:00.528Z,94397.03
2023-01-08T06:05:27.195Z,94393.16
2023-01-08T06:07:53.777Z,94394.06
2023-01-08T06:10:20.368Z,94390.38
2023-01-08T06:12:47.256Z,94398.75
2023-01-08T06:15:13.867Z,94403.47
2023-01-08T06:17:40.613Z,94389.00
2023-01-08T06:20:07.753Z,94388.72
2023-01-08T06:22:34.774Z,94393.03
2023-01-08T06:25:01.840Z,94394.03
2023-01-08T06:27:28.758Z,94398.22
2023-01-08T06:29:55.421Z,94397.66
2023-01-08T06:32:22.013Z,94402.63
2023-01-08T06:34:48.703Z,94408.88
2023-01-08T06:37:15.295Z,94411.50
2023-01-08T06:39:41.864Z,94402.72
2023-01-08T06:42:08.436Z,94405.41
2023-01-08T06:44:34.983Z,94398.91
2023-01-08T06:47:01.645Z,94403.16
2023-01-08T06:49:28.221Z,94400.25
2023-01-08T06:51:54.802Z,94401.59
2023-01-08T06:54:21.452Z,94393.00
2023-01-08T06:56:53.957Z,94406.00
2023-01-08T06:59:21.505Z,94412.28
2023-01-08T07:01:48.289Z,94412.09
2023-01-08T07:04:15.007Z,94421.03
2023-01-08T07:06:43.012Z,94427.94
2023-01-08T07:09:13.322Z,94420.19
2023-01-08T07:11:40.970Z,94425.13
2023-01-08T07:14:08.009Z,94420.59
2023-01-08T07:16:35.277Z,94412.50
2023-01-08T07:19:01.853Z,94412.13
2023-01-08T07:21:28.422Z,94421.16
2023-01-08T07:23:55.028Z,94421.66
2023-01-08T07:26:21.615Z,94419.66
2023-01-08T07:28:48.237Z,94418.44
2023-01-08T07:31:14.854Z,94405.69
2023-01-08T07:33:41.541Z,94401.94
2023-01-08T07:36:08.522Z,94418.06
2023-01-08T07:38:35.129Z,94420.00
2023-01-08T07:41:01.721Z,94411.88
2023-01-08T07:43:30.066Z,94407.94
2023-01-08T07:45:57.672Z,94402.66
2023-01-08T07:48:24.339Z,94400.13
2023-01-08T07:50:51.053Z,94400.72
2023-01-08T07:53:17.851Z,94395.16
2023-01-08T07:55:45.163Z,94395.56
2023-01-08T07:58:13.569Z,94391.81
2023-01-08T08:00:40.871Z,94394.53
2023-01-08T08:03:11.328Z,94402.34
2023-01-08T08:05:38.697Z,94394.09
2023-01-08T08:08:10.531Z,94410.81
2023-01-08T08:10:37.477Z,94399.59
2023-01-08T08:13:04.068Z,94397.53
2023-01-08T08:15:30.714Z,94394.44
2023-01-08T08:17:57.268Z,94388.31
2023-01-08T08:20:23.912Z,94391.78
2023-01-08T08:22:50.514Z,94400.72
2023-01-08T08:25:17.568Z,94395.41
2023-01-08T08:27:45.049Z,94404.50
2023-01-08T08:30:12.549Z,94403.47
2023-01-08T08:32:39.136Z,94400.00
2023-01-08T08:35:06.436Z,94408.44
2023-01-08T08:37:33.062Z,94404.44
2023-01-08T08:39:59.665Z,94393.19
2023-01-08T08:42:26.375Z,94382.25
2023-01-08T08:44:52.957Z,94372.25
2023-01-08T08:47:19.702Z,94379.63
2023-01-08T08:49:46.365Z,94386.81
2023-01-08T08:52:12.957Z,94388.03
2023-01-08T08:54:41.570Z,94387.75
2023-01-08T08:57:09.330Z,94397.34
2023-01-08T08:59:36.523Z,94402.56
2023-01-08T09:02:04.439Z,94402.31
2023-01-08T09:04:34.547Z,94399.00
2023-01-08T09:07:01.220Z,94398.34
2023-01-08T09:09:28.091Z,94393.97
2023-01-08T09:11:54.877Z,94401.34
2023-01-08T09:14:21.723Z,94392.97
2023-01-08T09:16:48.426Z,94389.88
2023-01-08T09:19:15.044Z,94402.50
2023-01-08T09:21:41.853Z,94402.03
2023-01-08T09:24:09.129Z,94398.28
2023-01-08T09:26:35.696Z,94405.75
2023-01-08T09:29:02.304Z,94404.34
2023-01-08T09:31:29.217Z,94403.72
2023-01-08T09:33:55.805Z,94398.31
2023-01-08T09:36:22.396Z,94398.03
2023-01-08T09:38:49.017Z,94388.91
2023-01-08T09:41:25.847Z,94380.97
2023-01-08T09:43:54.926Z,94378.75
2023-01-08T09:46:24.809Z,94377.91
2023-01-08T09:48:53.436Z,94359.94
2023-01-08T09:51:21.408Z,94349.97
2023-01-08T09:53:55.819Z,94351.53
2023-01-08T09:56:22.342Z,94371.88
2023-01-08T09:58:51.842Z,94372.44
2023-01-08T10:01:26.143Z,94375.00
2023-01-08T10:03:58.391Z,94380.19
2023-01-08T10:06:25.491Z,94361.78
2023-01-08T10:08:52.549Z,94353.38
2023-01-08T10:11:20.611Z,94363.72
2023-01-08T10:13:57.292Z,94375.00
2023-01-08T10:16:30.868Z,94367.34
2023-01-08T10:18:59.828Z,94353.75
2023-01-08T10:21:37.977Z,94349.84
2023-01-08T10:24:04.779Z,94351.28
2023-01-08T10:26:36.543Z,94344.53
2023-01-08T10:29:08.258Z,94339.16
2023-01-08T10:31:44.602Z,94346.75
2023-01-08T10:34:12.034Z,94350.84
2023-01-08T10:36:41.725Z,94346.31
2023-01-08T10:39:22.715Z,94347.06
2023-01-08T10:41:53.686Z,94340.59
2023-01-08T10:44:23.200Z,94349.75
2023-01-08T10:46:58.087Z,94352.44
2023-01-08T10:49:49.038Z,94354.72
2023-01-08T10:52:26.298Z,94360.69
2023-01-08T10:54:52.901Z,94364.09
2023-01-08T10:57:26.252Z,94367.06
2023-01-08T10:59:53.524Z,94358.47
2023-01-08T11:02:38.904Z,94349.72
2023-01-08T11:05:10.893Z,94329.88
2023-01-08T11:07:40.170Z,94316.47
2023-01-08T11:10:20.204Z,94311.06
2023-01-08T11:12:47.056Z,94301.59
2023-01-08T11:15:19.673Z,94314.47
2023-01-08T11:17:46.541Z,94312.59
2023-01-08T11:20:21.252Z,94298.00
2023-01-08T11:22:47.851Z,94293.81
2023-01-08T11:25:27.393Z,94298.03
2023-01-08T11:27:56.445Z,94285.28
2023-01-08T11:30:28.033Z,94272.34
2023-01-08T11:32:54.905Z,94276.50
2023-01-08T11:35:31.381Z,94272.78
2023-01-08T11:38:01.841Z,94271.19
2023-01-08T11:40:31.299Z,94275.25
2023-01-08T11:43:06.962Z,94271.50
2023-01-08T11:45:51.616Z,94268.63
2023-01-08T11:48:47.404Z,94257.22
2023-01-08T11:51:35.459Z,94253.63
2023-01-08T11:54:29.605Z,94255.06
2023-01-08T11:56:59.179Z,94250.44
2023-01-08T11:59:32.826Z,94242.13
2023-01-08T12:02:07.368Z,94248.63
2023-01-08T12:04:40.164Z,94243.66
2023-01-08T12:07:23.397Z,94235.59
2023-01-08T12:09:58.941Z,94233.47
2023-01-08T12:12:37.343Z,94230.13
2023-01-08T12:15:07.010Z,94223.06
2023-01-08T12:17:57.957Z,94219.69
2023-01-08T12:20:28.396Z,94200.78
2023-01-08T12:23:04.852Z,94198.38
2023-01-08T12:25:45.003Z,94199.97
2023-01-08T12:28:26.759Z,94197.38
2023-01-08T12:31:16.734Z,94201.19
2023-01-08T12:33:57.164Z,94203.66
2023-01-08T12:36:45.021Z,94188.00
2023-01-08T12:39:33.916Z,94197.03
2023-01-08T12:42:13.537Z,94186.19
2023-01-08T12:44:40.603Z,94189.19
2023-01-08T12:47:16.810Z,94193.06
2023-01-08T12:49:52.855Z,94176.03
2023-01-08T12:52:25.922Z,94183.75
2023-01-08T12:55:01.251Z,94182.06
2023-01-08T12:57:41.029Z,94183.91
2023-01-08T13:00:21.484Z,94179.13
2023-01-08T13:02:58.014Z,94170.59
2023-01-08T13:05:24.574Z,94166.97
2023-01-08T13:07:54.159Z,94160.31
2023-01-08T13:10:33.938Z,94156.59
2023-01-08T13:13:01.957Z,94144.59
2023-01-08T13:15:30.761Z,94142.84
2023-01-08T13:18:05.244Z,94146.34
2023-01-08T13:20:32.708Z,94131.00
2023-01-08T13:23:01.822Z,94125.19
2023-01-08T13:25:31.126Z,94135.75
2023-01-08T13:27:58.292Z,94128.69
2023-01-08T13:30:43.006Z,94131.25
2023-01-08T13:33:27.121Z,94139.53
2023-01-08T13:36:12.468Z,94133.75
2023-01-08T13:38:40.310Z,94105.38
2023-01-08T13:41:27.978Z,94115.25
2023-01-08T13:44:29.928Z,94102.16
2023-01-08T13:46:59.139Z,94095.78
2023-01-08T13:49:41.082Z,94102.00
2023-01-08T13:52:26.311Z,94100.38
2023-01-08T13:54:54.492Z,94096.88
2023-01-08T13:57:21.131Z,94100.00
2023-01-08T13:59:58.968Z,94092.84
2023-01-08T14:02:34.595Z,94095.78
2023-01-08T14:05:03.204Z,94094.59
2023-01-08T14:07:30.653Z,94101.31
2023-01-08T14:10:12.410Z,94102.50
2023-01-08T14:12:39.766Z,94107.91
2023-01-08T14:15:10.000Z,94119.38
2023-01-08T14:17:37.069Z,94113.63
2023-01-08T14:20:10.900Z,94108.28
2023-01-08T14:22:37.668Z,94107.38
2023-01-08T14:25:07.649Z,94106.75
2023-01-08T14:27:35.115Z,94102.47
2023-01-08T14:30:01.992Z,94094.00
2023-01-08T14:32:30.507Z,94096.63
2023-01-08T14:35:00.548Z,94101.91
2023-01-08T14:37:27.200Z,94100.31
2023-01-08T14:39:55.141Z,94098.69
2023-01-08T14:42:46.988Z,94102.78
2023-01-08T14:45:23.876Z,94108.94
2023-01-08T14:47:54.539Z,94095.44
2023-01-08T14:50:24.656Z,94097.44
2023-01-08T14:52:53.404Z,94094.88
2023-01-08T14:55:21.676Z,94089.75
2023-01-08T14:57:51.807Z,94091.72
2023-01-08T15:00:26.654Z,94087.03
2023-01-08T15:02:53.654Z,94079.44
2023-01-08T15:05:27.485Z,94083.38
2023-01-08T15:07:57.499Z,94081.03
2023-01-08T15:10:40.061Z,94073.44
2023-01-08T15:13:21.359Z,94068.91
2023-01-08T15:15:58.948Z,94084.59
2023-01-08T15:18:26.193Z,94084.88
2023-01-08T15:20:54.340Z,94081.25
2023-01-08T15:23:32.445Z,94070.34
2023-01-08T15:25:59.106Z,94068.84
2023-01-08T15:28:26.721Z,94067.13
2023-01-08T15:30:54.054Z,94075.13
2023-01-08T15:33:26.279Z,94090.84
2023-01-08T15:35:53.099Z,94070.84
2023-01-08T15:38:21.141Z,94060.44
2023-01-08T15:40:48.572Z,94063.94
2023-01-08T15:43:17.984Z,94061.66
2023-01-08T15:45:47.142Z,94055.50
2023-01-08T15:48:14.605Z,94052.81
2023-01-08T15:50:43.709Z,94042.84
2023-01-08T15:53:18.412Z,94051.09
2023-01-08T15:55:46.932Z,94048.59
2023-01-08T15:58:15.101Z,94032.22
2023-01-08T16:00:43.771Z,94034.53
2023-01-08T16:03:13.014Z,94026.78
2023-01-08T16:05:39.939Z,94026.78
2023-01-08T16:08:06.586Z,94019.94
2023-01-08T16:10:33.763Z,94016.06
2023-01-08T16:13:01.580Z,94008.81
2023-01-08T16:15:30.728Z,94010.03
2023-01-08T16:17:58.266Z,93994.84
2023-01-08T16:20:25.405Z,93997.94
2023-01-08T16:22:52.079Z,93990.41
2023-01-08T16:25:18.719Z,93986.09
2023-01-08T16:27:45.308Z,93982.28
2023-01-08T16:30:15.379Z,93968.06
2023-01-08T16:32:42.422Z,93967.66
2023-01-08T16:35:10.688Z,93966.38
2023-01-08T16:37:37.747Z,93961.28
2023-01-08T16:40:04.852Z,93955.25
2023-01-08T16:42:31.452Z,93948.44
2023-01-08T16:44:58.011Z,93944.03
2023-01-08T16:47:24.721Z,93934.22
2023-01-08T16:49:51.479Z,93926.06
2023-01-08T16:52:18.496Z,93922.72
2023-01-08T16:54:46.020Z,93910.66
2023-01-08T16:57:12.947Z,93902.75
2023-01-08T16:59:39.550Z,93894.28
2023-01-08T17:02:06.346Z,93892.41
2023-01-08T17:04:33.009Z,93912.00
2023-01-08T17:06:59.664Z,93909.06
2023-01-08T17:09:26.346Z,93908.50
2023-01-08T17:11:53.006Z,93914.13
2023-01-08T17:14:19.905Z,93908.31
2023-01-08T17:16:47.598Z,93905.97
2023-01-08T17:19:14.511Z,93906.69
2023-01-08T17:21:41.520Z,93912.50
2023-01-08T17:24:08.781Z,93913.72
2023-01-08T17:26:35.672Z,93903.81
2023-01-08T17:29:02.336Z,93901.25
2023-01-08T17:31:36.803Z,93887.16
2023-01-08T17:34:03.446Z,93889.19
2023-01-08T17:36:32.108Z,93884.47
2023-01-08T17:39:00.993Z,93879.16
2023-01-08T17:41:46.251Z,93877.66
2023-01-08T17:44:13.378Z,93876.72
2023-01-08T17:46:42.459Z,93860.75
2023-01-08T17:49:11.280Z,93860.88
2023-01-08T17:51:38.688Z,93857.69
2023-01-08T17:54:05.305Z,93851.19
2023-01-08T17:56:31.920Z,93849.72
2023-01-08T17:58:58.560Z,93842.25
2023-01-08T18:01:26.259Z,93838.59
2023-01-08T18:03:53.074Z,93830.56
2023-01-08T18:06:19.769Z,93823.81
2023-01-08T18:08:46.542Z,93815.72
2023-01-08T18:11:13.631Z,93817.31
2023-01-08T18:13:40.202Z,93811.09
2023-01-08T18:16:13.339Z,93815.81
2023-01-08T18:18:40.471Z,93809.91
2023-01-08T18:21:07.599Z,93806.66
2023-01-08T18:23:34.447Z,93809.06
2023-01-08T18:26:12.034Z,93810.78
2023-01-08T18:28:38.991Z,93805.78
2023-01-08T18:31:07.777Z,93808.13
2023-01-08T18:33:35.592Z,93793.88
2023-01-08T18:36:09.162Z,93793.63
2023-01-08T18:38:38.092Z,93790.53
2023-01-08T18:41:05.956Z,93794.75
2023-01-08T18:43:36.790Z,93785.03
2023-01-08T18:46:07.984Z,93777.16
2023-01-08T18:48:35.462Z,93774.88
2023-01-08T18:51:05.382Z,93772.63
2023-01-08T18:53:33.401Z,93760.13
2023-01-08T18:56:00.808Z,93753.69
2023-01-08T18:58:27.811Z,93751.78
2023-01-08T19:00:54.692Z,93747.81
2023-01-08T19:03:21.458Z,93741.31
2023-01-08T19:05:48.078Z,93746.53
2023-01-08T19:08:14.669Z,93745.41
2023-01-08T19:10:41.270Z,93735.72
2023-01-08T19:13:07.911Z,93729.38
2023-01-08T19:15:34.492Z,93731.94
2023-01-08T19:18:01.101Z,93721.88
2023-01-08T19:20:28.001Z,93716.09
2023-01-08T19:22:54.825Z,93712.31
2023-01-08T19:25:21.972Z,93700.34
2023-01-08T19:27:48.637Z,93692.03
2023-01-08T19:30:15.765Z,93679.41
2023-01-08T19:32:42.397Z,93671.31
2023-01-08T19:35:09.472Z,93671.22
2023-01-08T19:37:36.056Z,93670.59
2023-01-08T19:40:02.731Z,93667.06
2023-01-08T19:42:47.889Z,93661.16
2023-01-08T19:45:15.084Z,93647.06
2023-01-08T19:47:41.965Z,93640.69
2023-01-08T19:50:09.389Z,93648.91
2023-01-08T19:52:36.295Z,93633.09
2023-01-08T19:55:03.027Z,93638.75
2023-01-08T19:57:29.621Z,93648.69
2023-01-08T19:59:56.207Z,93646.41
2023-01-08T20:02:22.830Z,93641.47
2023-01-08T20:04:49.511Z,93646.28
2023-01-08T20:07:16.098Z,93648.84
2023-01-08T20:09:43.348Z,93647.47
2023-01-08T20:12:11.112Z,93646.44
2023-01-08T20:14:37.934Z,93639.50
2023-01-08T20:17:04.554Z,93634.84
2023-01-08T20:19:31.225Z,93628.28
2023-01-08T20:21:58.982Z,93628.13
2023-01-08T20:24:25.648Z,93631.34
2023-01-08T20:26:52.248Z,93621.94
2023-01-08T20:29:18.923Z,93622.44
2023-01-08T20:31:45.701Z,93624.25
2023-01-08T20:34:15.524Z,93626.00
2023-01-08T20:36:44.161Z,93626.16
2023-01-08T20:39:14.747Z,93623.59
2023-01-08T20:41:46.670Z,93619.31
2023-01-08T20:44:22.551Z,93613.22
2023-01-08T20:46:49.357Z,93609.25
2023-01-08T20:49:18.332Z,93620.22
2023-01-08T20:51:54.389Z,93613.69
2023-01-08T20:54:24.547Z,93614.63
2023-01-08T20:56:51.204Z,93621.47
2023-01-08T20:59:17.766Z,93613.97
2023-01-08T21:01:44.390Z,93607.63
2023-01-08T21:04:11.095Z,93604.25
2023-01-08T21:06:37.825Z,93610.31
2023-01-08T21:09:09.435Z,93610.59
2023-01-08T21:11:38.364Z,93612.00
2023-01-08T21:14:05.759Z,93612.59
2023-01-08T21:16:34.754Z,93614.94
2023-01-08T21:19:02.038Z,93605.28
2023-01-08T21:21:34.160Z,93610.69
2023-01-08T21:24:04.266Z,93605.72
2023-01-08T21:26:33.800Z,93612.59
2023-01-08T21:29:03.048Z,93619.22
2023-01-08T21:31:30.304Z,93611.41
2023-01-08T21:33:58.728Z,93604.28
2023-01-08T21:36:27.788Z,93600.78
2023-01-08T21:38:56.945Z,93603.16
2023-01-08T21:41:44.303Z,93614.91
2023-01-08T21:44:48.645Z,93605.94
2023-01-08T21:47:17.437Z,93594.56
2023-01-08T21:49:45.090Z,93596.81
2023-01-08T21:52:30.238Z,93592.97
2023-01-08T21:54:58.184Z,93572.34
2023-01-08T21:57:27.655Z,93572.19
2023-01-08T21:59:55.431Z,93567.97
2023-01-08T22:02:24.235Z,93564.09
2023-01-08T22:04:54.221Z,93548.47
2023-01-08T22:07:20.820Z,93547.09
2023-01-08T22:09:47.415Z,93528.78
2023-01-08T22:12:15.778Z,93534.09
2023-01-08T22:14:42.397Z,93519.81
2023-01-08T22:17:09.393Z,93502.19
2023-01-08T22:19:39.525Z,93495.94
2023-01-08T22:22:10.147Z,93495.84
2023-01-08T22:24:37.442Z,93487.97
2023-01-08T22:27:03.994Z,93488.19
2023-01-08T22:29:30.782Z,93497.25
2023-01-08T22:31:57.407Z,93483.00
2023-01-08T22:34:24.023Z,93470.78
2023-01-08T22:36:51.498Z,93473.28
2023-01-08T22:39:19.120Z,93463.19
2023-01-08T22:41:45.675Z,93464.31
2023-01-08T22:44:12.800Z,93465.38
2023-01-08T22:46:39.529Z,93472.13
2023-01-08T22:49:06.179Z,93460.28
2023-01-08T22:51:32.871Z,93458.81
2023-01-08T22:53:59.598Z,93459.72
2023-01-08T22:56:26.984Z,93456.19
2023-01-08T22:58:53.927Z,93461.31
2023-01-08T23:01:24.414Z,93448.44
2023-01-08T23:03:52.571Z,93457.72
2023-01-08T23:06:20.830Z,93452.59
2023-01-08T23:08:47.896Z,93458.31
2023-01-08T23:11:16.717Z,93448.56
2023-01-08T23:13:43.607Z,93447.91
2023-01-08T23:16:12.482Z,93443.22
2023-01-08T23:18:39.550Z,93442.72
2023-01-08T23:21:09.395Z,93439.25
2023-01-08T23:23:36.175Z,93447.41
2023-01-08T23:26:27.365Z,93441.06
2023-01-08T23:28:55.921Z,93444.69
2023-01-08T23:31:25.281Z,93438.53
2023-01-08T23:33:52.849Z,93435.16
2023-01-08T23:36:21.364Z,93445.34
2023-01-08T23:38:50.585Z,93441.19
2023-01-08T23:41:20.281Z,93446.16
2023-01-08T23:43:48.733Z,93440.19
2023-01-08T23:46:16.111Z,93439.31
2023-01-08T23:48:42.975Z,93447.84
2023-01-08T23:51:09.575Z,93457.38
2023-01-08T23:53:36.105Z,93461.44
2023-01-08T23:56:02.824Z,93476.81
2023-01-08T23:58:29.498Z,93484.47
